Portada
METAR-TAF:

METAR-TAF

Aeroports :

Doha, Qatar

latitud: 25-15-40N, longitud: 051-33-54E, altitud: 11 m

Observació

L'informe es va fer fa 14 minuts, a les 18:30 UTC
Vent 11 kt del Nord-Oest, variant entre Oest i Nord/Nord-Oest
Temperatura 20°C
Humitat 60%
Pressió 1017 hPa
Visibilitat 10 km o més
sense núvols per sota de 1500 mi sense presència de cumulonimbus.

METAR: OTBD 051830Z AUTO 31011KT 280V340 CAVOK 20/12 Q1017 NOSIG

Hora: 21:44 (18:44 UTC)

Pronòstic

L'informe es va fer fa 1 hora i 43 minuts, a les 17:01 UTC
Pronòstic vàlid del 05 a les 18 UTC al 06 a les 24 UTC
Vent 18 kt del Nord/Nord-Oest
Visibilitat: 8000 m
Temporalment
l' 06 a les 05 UTC al 06 a les 15 UTC
Vent 17 kt del Nord/Nord-Oest amb ràfegues de 27 kt
Visibilitat: 6000 m
torb alta de pols

TAF: OTBD 051701Z 0518/0624 34018KT 8000 NSC TEMPO 0605/0615 34017G27KT 6000 BLDU

Observacions i pronòstics meteorològics de més de 4000 aeroports (METAR i TAF).

Les estacions disponibles són els punts grocs i vermells al mapa.

Posi el ratolí al punt desitjat per veure el nom de l'estació.

Feu clic per veure les observacions i els pronòstics meteorològics.

Per canviar el mapa: feu clic els botons verds amb una creu de color negre per apropar; al botó verd amb un guió per allunyar la imatge; o en les fletxes verdes per a mapes adjacents.


METAR-TAF: